Ponza — 9HA2174 — position and weather

sailwx.info

Track history (hours):
 
Tides and Currents Weather Stations Pressure Air Temp Water Temp Dewpoint Dewpoint Depression Visibility Wind Speed Wind Dir Waves Ship Positions

Ponza

Last reported at 2017-Nov-05 01:05 UTC. Time now 2017-Nov-23 09:27 UTC.
Position N 37°26' E 025°56'.
Warning: this ship's position is 18 days out of date.

Length 99 m.

Type: Cargo ship. MMSI: 248097000.

Date/timePositionNaut miles runAvg speedWind from/ knotsBaromVisibWave heightAir tempDewpointWater temp
2017-Nov-05 01:05N 37°26' E 025°56'1 7.5
2017-Nov-05 01:01N 37°26' E 025°55'4 8.2
2017-Nov-05 00:30N 37°27' E 025°50'5 9.0
2017-Nov-05 00:00N 37°29' E 025°44'5 9.8
2017-Nov-04 23:30N 37°31' E 025°39'3 6.8
2017-Nov-04 23:00N 37°30' E 025°35'4 8.5
2017-Nov-04 22:30N 37°26' E 025°32'4 8.7
2017-Nov-04 22:00N 37°24' E 025°27'4 9.0
2017-Nov-04 21:30N 37°22' E 025°22'4 8.5
2017-Nov-04 21:00N 37°21' E 025°17'4 8.5
2017-Nov-04 20:30N 37°21' E 025°11'4 9.0
2017-Nov-04 20:00N 37°23' E 025°06'5 9.1
2017-Nov-04 19:30N 37°23' E 025°00'4 8.6
2017-Nov-04 19:00N 37°21' E 024°55'4 8.5
2017-Nov-04 18:30N 37°19' E 024°51'4 7.9
2017-Nov-04 18:00N 37°16' E 024°47'  
2017-Nov-02 14:00N 37°55' E 015°43'6 9.1
2017-Nov-02 13:19N 37°57' E 015°36'5 9.1
2017-Nov-02 12:48N 38°02' E 015°34'3 9.1
2017-Nov-02 12:28N 38°05' E 015°35'4 8.9
2017-Nov-02 12:00N 38°09' E 015°35'9 8.8
2017-Nov-02 10:58N 38°17' E 015°41'  
2017-Oct-31 00:53N 43°25' E 007°10'3 8.6
2017-Oct-31 00:30N 43°23' E 007°07'86 7.5
2017-Oct-30 13:04N 43°12' E 005°10'1 9.3
2017-Oct-30 13:00N 43°12' E 005°09'5 9.4
2017-Oct-30 12:30N 43°15' E 005°03'4 8.7
2017-Oct-30 12:00N 43°18' E 004°59'5 9.6
2017-Oct-30 11:30N 43°22' E 004°58'3 3.4
2017-Oct-30 10:45N 43°25' E 004°56'0 0.0
2017-Oct-30 10:24N 43°25' E 004°56'0 0.0
2017-Oct-30 09:54N 43°25' E 004°56'0 0.0
2017-Oct-30 09:30N 43°25' E 004°56'0 0.0
2017-Oct-30 09:00N 43°25' E 004°56'0 0.0
2017-Oct-30 07:54N 43°25' E 004°56'0 0.0
2017-Oct-30 07:24N 43°25' E 004°56'0 0.0
2017-Oct-30 06:15N 43°25' E 004°56'0 0.0
2017-Oct-30 05:51N 43°25' E 004°56'0 0.0
2017-Oct-30 04:36N 43°25' E 004°56'0 0.0
2017-Oct-30 01:42N 43°25' E 004°56'0 0.0
2017-Oct-30 01:21N 43°25' E 004°56'0 0.0
2017-Oct-30 00:51N 43°25' E 004°56'0 0.0
2017-Oct-30 00:30N 43°25' E 004°56'0 0.0
2017-Oct-30 00:00N 43°25' E 004°56'0 0.0
2017-Oct-29 23:18N 43°25' E 004°56'0 0.0
2017-Oct-29 22:57N 43°25' E 004°56'0 0.0
2017-Oct-29 22:30N 43°25' E 004°56'0 0.0
2017-Oct-29 21:54N 43°25' E 004°56'0 0.0
2017-Oct-29 21:18N 43°25' E 004°56'0 0.0
2017-Oct-29 20:30N 43°25' E 004°56'0 0.0
2017-Oct-29 20:00N 43°25' E 004°56'0 0.0
2017-Oct-29 19:24N 43°25' E 004°56'0 0.0
2017-Oct-29 18:24N 43°25' E 004°56'0 0.0
2017-Oct-29 17:48N 43°25' E 004°56'0 0.0
2017-Oct-29 15:57N 43°25' E 004°56'0 0.1
2017-Oct-29 15:30N 43°25' E 004°56'0 0.0
2017-Oct-29 14:48N 43°25' E 004°56'0 0.0
2017-Oct-29 13:18N 43°25' E 004°56'0 0.1
2017-Oct-29 12:57N 43°25' E 004°56'0 0.0
2017-Oct-29 12:27N 43°25' E 004°56'0 0.0
2017-Oct-29 11:33N 43°25' E 004°56'0 0.0
2017-Oct-29 11:30N 43°25' E 004°56'0 0.0
2017-Oct-29 10:48N 43°25' E 004°56'0 0.0
2017-Oct-29 10:27N 43°25' E 004°56'0 0.0
2017-Oct-29 10:00N 43°25' E 004°56'0 0.0
2017-Oct-29 09:15N 43°25' E 004°56'0 0.0
2017-Oct-29 08:57N 43°25' E 004°56'0 0.0
2017-Oct-29 08:30N 43°25' E 004°56'0 0.0
2017-Oct-29 07:54N 43°25' E 004°56'0 0.0
2017-Oct-29 07:30N 43°25' E 004°56'0 0.0
2017-Oct-29 07:00N 43°25' E 004°56'0 0.0
2017-Oct-29 05:57N 43°25' E 004°56'0 0.0
2017-Oct-29 03:33N 43°25' E 004°56'2 0.2
2017-Oct-28 16:24N 43°26' E 004°53'0 0.0
2017-Oct-28 12:15N 43°26' E 004°53'0 0.0
2017-Oct-28 12:00N 43°26' E 004°53'0 0.0
2017-Oct-28 07:54N 43°26' E 004°53'0 0.0
2017-Oct-28 07:12N 43°26' E 004°53'0 0.0
2017-Oct-28 06:42N 43°26' E 004°53'0 0.0
2017-Oct-28 06:30N 43°26' E 004°53'0 0.0
2017-Oct-28 05:00N 43°26' E 004°53'0 0.0
2017-Oct-28 02:51N 43°26' E 004°53'0 0.0
2017-Oct-28 00:48N 43°26' E 004°53'0 0.0
2017-Oct-27 21:03N 43°26' E 004°53'0 0.0
2017-Oct-27 21:00N 43°26' E 004°53'0 0.4
2017-Oct-27 20:30N 43°25' E 004°53'2 1.7
2017-Oct-27 19:38N 43°24' E 004°55'0 0.1
2017-Oct-27 19:29N 43°24' E 004°55'0 0.0
2017-Oct-27 18:47N 43°24' E 004°55'0 0.0
2017-Oct-27 18:23N 43°24' E 004°55'0 0.0
2017-Oct-27 17:59N 43°24' E 004°55'0 0.0
2017-Oct-27 17:29N 43°24' E 004°55'0 0.0
2017-Oct-27 16:56N 43°24' E 004°55'0 0.0
2017-Oct-27 16:29N 43°24' E 004°55'0 0.0
2017-Oct-27 15:50N 43°24' E 004°55'0 0.0
2017-Oct-27 15:29N 43°24' E 004°55'0 0.0
2017-Oct-27 14:59N 43°24' E 004°55'0 0.0
2017-Oct-27 14:17N 43°24' E 004°55'0 0.0
2017-Oct-27 13:59N 43°24' E 004°55'0 0.0
2017-Oct-26 03:17N 43°25' E 004°55'  
Track history (hours):
 
Tides and Currents Weather Stations Pressure Air Temp Water Temp Dewpoint Dewpoint Depression Visibility Wind Speed Wind Dir Waves Ship Positions

Ponza

Last reported at 2017-Nov-05 01:05 UTC. Time now 2017-Nov-23 09:27 UTC.
Position N 37°26' E 025°56'.
Warning: this ship's position is 18 days out of date.

Length 99 m.

Type: Cargo ship. MMSI: 248097000.

Date/timePositionNaut miles runAvg speedWind from/ knotsBaromVisibWave heightAir tempDewpointWater temp
2017-Nov-05 01:05N 37°26' E 025°56'1 7.5
2017-Nov-05 01:01N 37°26' E 025°55'4 8.2
2017-Nov-05 00:30N 37°27' E 025°50'5 9.0
2017-Nov-05 00:00N 37°29' E 025°44'5 9.8
2017-Nov-04 23:30N 37°31' E 025°39'3 6.8
2017-Nov-04 23:00N 37°30' E 025°35'4 8.5
2017-Nov-04 22:30N 37°26' E 025°32'4 8.7
2017-Nov-04 22:00N 37°24' E 025°27'4 9.0
2017-Nov-04 21:30N 37°22' E 025°22'4 8.5
2017-Nov-04 21:00N 37°21' E 025°17'4 8.5
2017-Nov-04 20:30N 37°21' E 025°11'4 9.0
2017-Nov-04 20:00N 37°23' E 025°06'5 9.1
2017-Nov-04 19:30N 37°23' E 025°00'4 8.6
2017-Nov-04 19:00N 37°21' E 024°55'4 8.5
2017-Nov-04 18:30N 37°19' E 024°51'4 7.9
2017-Nov-04 18:00N 37°16' E 024°47'  
2017-Nov-02 14:00N 37°55' E 015°43'6 9.1
2017-Nov-02 13:19N 37°57' E 015°36'5 9.1
2017-Nov-02 12:48N 38°02' E 015°34'3 9.1
2017-Nov-02 12:28N 38°05' E 015°35'4 8.9
2017-Nov-02 12:00N 38°09' E 015°35'9 8.8
2017-Nov-02 10:58N 38°17' E 015°41'  
2017-Oct-31 00:53N 43°25' E 007°10'3 8.6
2017-Oct-31 00:30N 43°23' E 007°07'86 7.5
2017-Oct-30 13:04N 43°12' E 005°10'1 9.3
2017-Oct-30 13:00N 43°12' E 005°09'5 9.4
2017-Oct-30 12:30N 43°15' E 005°03'4 8.7
2017-Oct-30 12:00N 43°18' E 004°59'5 9.6
2017-Oct-30 11:30N 43°22' E 004°58'3 3.4
2017-Oct-30 10:45N 43°25' E 004°56'0 0.0
2017-Oct-30 10:24N 43°25' E 004°56'0 0.0
2017-Oct-30 09:54N 43°25' E 004°56'0 0.0
2017-Oct-30 09:30N 43°25' E 004°56'0 0.0
2017-Oct-30 09:00N 43°25' E 004°56'0 0.0
2017-Oct-30 07:54N 43°25' E 004°56'0 0.0
2017-Oct-30 07:24N 43°25' E 004°56'0 0.0
2017-Oct-30 06:15N 43°25' E 004°56'0 0.0
2017-Oct-30 05:51N 43°25' E 004°56'0 0.0
2017-Oct-30 04:36N 43°25' E 004°56'0 0.0
2017-Oct-30 01:42N 43°25' E 004°56'0 0.0
2017-Oct-30 01:21N 43°25' E 004°56'0 0.0
2017-Oct-30 00:51N 43°25' E 004°56'0 0.0
2017-Oct-30 00:30N 43°25' E 004°56'0 0.0
2017-Oct-30 00:00N 43°25' E 004°56'0 0.0
2017-Oct-29 23:18N 43°25' E 004°56'0 0.0
2017-Oct-29 22:57N 43°25' E 004°56'0 0.0
2017-Oct-29 22:30N 43°25' E 004°56'0 0.0
2017-Oct-29 21:54N 43°25' E 004°56'0 0.0
2017-Oct-29 21:18N 43°25' E 004°56'0 0.0
2017-Oct-29 20:30N 43°25' E 004°56'0 0.0
2017-Oct-29 20:00N 43°25' E 004°56'0 0.0
2017-Oct-29 19:24N 43°25' E 004°56'0 0.0
2017-Oct-29 18:24N 43°25' E 004°56'0 0.0
2017-Oct-29 17:48N 43°25' E 004°56'0 0.0
2017-Oct-29 15:57N 43°25' E 004°56'0 0.1
2017-Oct-29 15:30N 43°25' E 004°56'0 0.0
2017-Oct-29 14:48N 43°25' E 004°56'0 0.0
2017-Oct-29 13:18N 43°25' E 004°56'0 0.1
2017-Oct-29 12:57N 43°25' E 004°56'0 0.0
2017-Oct-29 12:27N 43°25' E 004°56'0 0.0
2017-Oct-29 11:33N 43°25' E 004°56'0 0.0
2017-Oct-29 11:30N 43°25' E 004°56'0 0.0
2017-Oct-29 10:48N 43°25' E 004°56'0 0.0
2017-Oct-29 10:27N 43°25' E 004°56'0 0.0
2017-Oct-29 10:00N 43°25' E 004°56'0 0.0
2017-Oct-29 09:15N 43°25' E 004°56'0 0.0
2017-Oct-29 08:57N 43°25' E 004°56'0 0.0
2017-Oct-29 08:30N 43°25' E 004°56'0 0.0
2017-Oct-29 07:54N 43°25' E 004°56'0 0.0
2017-Oct-29 07:30N 43°25' E 004°56'0 0.0
2017-Oct-29 07:00N 43°25' E 004°56'0 0.0
2017-Oct-29 05:57N 43°25' E 004°56'0 0.0
2017-Oct-29 03:33N 43°25' E 004°56'2 0.2
2017-Oct-28 16:24N 43°26' E 004°53'0 0.0
2017-Oct-28 12:15N 43°26' E 004°53'0 0.0
2017-Oct-28 12:00N 43°26' E 004°53'0 0.0
2017-Oct-28 07:54N 43°26' E 004°53'0 0.0
2017-Oct-28 07:12N 43°26' E 004°53'0 0.0
2017-Oct-28 06:42N 43°26' E 004°53'0 0.0
2017-Oct-28 06:30N 43°26' E 004°53'0 0.0
2017-Oct-28 05:00N 43°26' E 004°53'0 0.0
2017-Oct-28 02:51N 43°26' E 004°53'0 0.0
2017-Oct-28 00:48N 43°26' E 004°53'0 0.0
2017-Oct-27 21:03N 43°26' E 004°53'0 0.0
2017-Oct-27 21:00N 43°26' E 004°53'0 0.4
2017-Oct-27 20:30N 43°25' E 004°53'2 1.7
2017-Oct-27 19:38N 43°24' E 004°55'0 0.1
2017-Oct-27 19:29N 43°24' E 004°55'0 0.0
2017-Oct-27 18:47N 43°24' E 004°55'0 0.0
2017-Oct-27 18:23N 43°24' E 004°55'0 0.0
2017-Oct-27 17:59N 43°24' E 004°55'0 0.0
2017-Oct-27 17:29N 43°24' E 004°55'0 0.0
2017-Oct-27 16:56N 43°24' E 004°55'0 0.0
2017-Oct-27 16:29N 43°24' E 004°55'0 0.0
2017-Oct-27 15:50N 43°24' E 004°55'0 0.0
2017-Oct-27 15:29N 43°24' E 004°55'0 0.0
2017-Oct-27 14:59N 43°24' E 004°55'0 0.0
2017-Oct-27 14:17N 43°24' E 004°55'0 0.0
2017-Oct-27 13:59N 43°24' E 004°55'0 0.0
2017-Oct-26 03:17N 43°25' E 004°55'  

Dump ship's entire track history